British Ensign — MMER9 — position and weather

sailwx.info

Track history (hours):
 
Tides and Currents Weather Stations Pressure Air Temp Water Temp Dewpoint Dewpoint Depression Visibility Wind Speed Wind Dir Waves Ship Positions

British Ensign

Last reported at 2014-Oct-24 07:32 UTC. Time now 2014-Oct-24 07:48 UTC.
Position N 54°41' E 005°07'.

Length 184.2 m; beam 27.4 m; draft 11.3 m.

Type: Ship. MMSI: 235010980.

Date/timePositionNaut miles runAvg speedWind from/ knotsBaromVisibWave heightAir tempDewpointWater temp
2014-Oct-24 07:32N 54°41' E 005°07'3912.9
2014-Oct-24 04:33N 54°06' E 004°37'1313.4
2014-Oct-24 03:33N 53°53' E 004°32'10810.8
2014-Oct-23 17:32N 52°11' E 003°31'1212.8
2014-Oct-23 16:33N 52°12' E 003°51'1212.4
2014-Oct-23 15:34N 52°13' E 004°11'2 1.6
2014-Oct-23 14:31N 52°13' E 004°14'0 0.0
2014-Oct-23 13:31N 52°13' E 004°14'0 0.0
2014-Oct-23 12:31N 52°13' E 004°14'0 0.0
2014-Oct-23 11:31N 52°13' E 004°14'0 0.0
2014-Oct-23 10:31N 52°13' E 004°14'0 0.1
2014-Oct-23 09:31N 52°13' E 004°14'1 2.5
2014-Oct-23 09:00N 52°12' E 004°12'1 2.7 230 / 121021.210.8 1.514.011.214.0
2014-Oct-23 08:31N 52°13' E 004°14'0 0.0
2014-Oct-23 07:31N 52°13' E 004°14'0 0.0
2014-Oct-23 06:31N 52°13' E 004°14'0 0.0
2014-Oct-23 05:31N 52°13' E 004°14'0 0.0
2014-Oct-23 04:31N 52°13' E 004°14'0 0.0
2014-Oct-23 03:31N 52°13' E 004°14'0 0.0
2014-Oct-23 02:31N 52°13' E 004°14'0 0.0
2014-Oct-23 01:31N 52°13' E 004°14'0 0.1
2014-Oct-23 00:31N 52°13' E 004°14'0 0.1
2014-Oct-22 23:31N 52°13' E 004°14'0 0.1
2014-Oct-22 22:31N 52°13' E 004°14'0 0.1
2014-Oct-22 21:31N 52°13' E 004°14'1 2.3
2014-Oct-22 21:00N 52°12' E 004°12'1 2.5 310 / 121023.2 5.4 1.013.0 7.913.0
2014-Oct-22 20:31N 52°13' E 004°14'0 0.0
2014-Oct-22 19:31N 52°13' E 004°14'0 0.1
2014-Oct-22 18:31N 52°13' E 004°14'0 0.0
2014-Oct-22 17:31N 52°13' E 004°14'0 0.0
2014-Oct-22 16:31N 52°13' E 004°14'0 0.1
2014-Oct-22 15:31N 52°13' E 004°14'0 0.0
2014-Oct-22 14:31N 52°13' E 004°14'4 4.5
2014-Oct-22 13:33N 52°12' E 004°07'1211.6
2014-Oct-22 12:33N 52°12' E 003°48'1111.1
2014-Oct-22 11:33N 52°12' E 003°30'1912.3
2014-Oct-22 10:00N 52°18' E 003°00'24 1.5 320 / 301020.8 5.4 3.012.510.6
2014-Oct-21 18:00N 52°42' E 003°00'6 2.2 320 / 351004.1 5.4 6.012.0 5.615.0
2014-Oct-21 15:10N 52°38' E 003°07'27 8.4
2014-Oct-21 12:00N 52°12' E 003°18'714.0 280 / 331001.5 5.4 4.513.0 6.815.0
2014-Oct-21 11:28N 52°12' E 003°30'910.3
2014-Oct-21 10:33N 52°12' E 003°45'1111.2
2014-Oct-21 09:34N 52°12' E 004°04'7 6.6
2014-Oct-21 08:32N 52°13' E 004°15'0 0.1
2014-Oct-21 07:32N 52°12' E 004°15'0 0.0
2014-Oct-21 06:32N 52°12' E 004°15'0 0.0
2014-Oct-21 05:32N 52°12' E 004°15'156155.7
2014-Oct-21 04:32N 52°13' E 000°01'156155.7
2014-Oct-21 03:32N 52°12' E 004°15'0 0.0
2014-Oct-21 02:32N 52°12' E 004°15'0 0.0
2014-Oct-21 01:32N 52°12' E 004°15'0 0.0
2014-Oct-21 00:32N 52°12' E 004°15'0 0.0
2014-Oct-20 23:32N 52°12' E 004°15'0 0.0
2014-Oct-20 22:32N 52°12' E 004°15'0 0.0
2014-Oct-20 21:32N 52°12' E 004°15'0 0.0
2014-Oct-20 20:32N 52°12' E 004°15'0 0.0
2014-Oct-20 19:32N 52°12' E 004°15'0 0.0
2014-Oct-20 18:32N 52°12' E 004°15'0 0.0
2014-Oct-20 17:32N 52°12' E 004°15'0 0.0
2014-Oct-20 16:32N 52°12' E 004°15'0 0.0
2014-Oct-20 15:32N 52°12' E 004°15'0 0.0
2014-Oct-20 14:32N 52°12' E 004°15'0 0.0
2014-Oct-20 13:32N 52°12' E 004°15'0 0.0
2014-Oct-20 12:32N 52°12' E 004°15'0 0.0
2014-Oct-20 11:32N 52°12' E 004°15'0 0.1
2014-Oct-20 10:32N 52°12' E 004°15'0 0.0
2014-Oct-20 09:32N 52°12' E 004°15'0 0.0
2014-Oct-20 08:32N 52°12' E 004°15'0 0.0
2014-Oct-20 07:32N 52°12' E 004°15'0 0.0
2014-Oct-20 06:32N 52°12' E 004°15'0 0.0
2014-Oct-20 05:32N 52°12' E 004°15'0 0.0
2014-Oct-20 04:32N 52°12' E 004°15'0 0.0
2014-Oct-20 03:32N 52°12' E 004°15'0 0.0
2014-Oct-20 02:32N 52°12' E 004°15'0 0.0
2014-Oct-20 01:32N 52°12' E 004°15'0 0.0
2014-Oct-20 00:32N 52°12' E 004°15'0 0.0
2014-Oct-19 23:32N 52°12' E 004°15'0 0.0
2014-Oct-19 22:32N 52°12' E 004°15'0 0.0
2014-Oct-19 21:32N 52°12' E 004°15'0 0.0
2014-Oct-19 20:32N 52°12' E 004°15'0 0.1
2014-Oct-19 19:32N 52°12' E 004°15'0 0.1
2014-Oct-19 18:32N 52°12' E 004°15'0 0.0
2014-Oct-19 17:32N 52°12' E 004°15'0 0.0
2014-Oct-19 16:32N 52°12' E 004°15'0 0.0
2014-Oct-19 15:32N 52°12' E 004°15'0 0.0
2014-Oct-19 14:32N 52°12' E 004°15'0 0.0
2014-Oct-19 13:32N 52°12' E 004°15'0 0.0
2014-Oct-19 12:32N 52°12' E 004°15'4 4.2
2014-Oct-19 11:34N 52°13' E 004°08'1313.3
2014-Oct-19 10:33N 52°12' E 003°47'1312.9
2014-Oct-19 09:33N 52°08' E 003°26'1513.5
2014-Oct-19 08:28N 51°54' E 003°18'2814.1
2014-Oct-19 06:30N 51°45' E 002°36'1313.2
2014-Oct-19 05:32N 51°35' E 002°22'1313.2
2014-Oct-19 04:34N 51°26' E 002°08'1212.3
2014-Oct-19 03:33N 51°14' E 002°04'1312.9
2014-Oct-19 02:33N 51°07' E 001°46'1313.2
2014-Oct-19 01:33N 50°58' E 001°30'1413.5
2014-Oct-19 00:33N 50°46' E 001°23'15014.2
2014-Oct-18 14:00N 49°54' W 002°18'15614.2 210 / 121012.0 5.4 2.018.014.6
2014-Oct-18 03:00N 49°36' W 006°18'   200 / 221003.0 5.4 3.016.016.0
2014-Oct-15 21:00N 49°36' W 024°54'253252.5 290 / 18970.7 2.2 2.012.0 7.9
2014-Oct-15 20:00N 45°24' W 025°18'253252.5 310 / 16971.1 5.4 3.512.010.1
2014-Oct-15 19:00N 49°36' W 025°42'31313.6 310 / 20970.4 5.4 1.013.5 3.5
2014-Oct-14 20:00N 49°18' W 033°42'   320 / 36971.5 2.2 6.012.0 5.6
Track history (hours):
 
Tides and Currents Weather Stations Pressure Air Temp Water Temp Dewpoint Dewpoint Depression Visibility Wind Speed Wind Dir Waves Ship Positions

British Ensign

Last reported at 2014-Oct-24 07:32 UTC. Time now 2014-Oct-24 07:48 UTC.
Position N 54°41' E 005°07'.

Length 184.2 m; beam 27.4 m; draft 11.3 m.

Type: Ship. MMSI: 235010980.

Date/timePositionNaut miles runAvg speedWind from/ knotsBaromVisibWave heightAir tempDewpointWater temp
2014-Oct-24 07:32N 54°41' E 005°07'3912.9
2014-Oct-24 04:33N 54°06' E 004°37'1313.4
2014-Oct-24 03:33N 53°53' E 004°32'10810.8
2014-Oct-23 17:32N 52°11' E 003°31'1212.8
2014-Oct-23 16:33N 52°12' E 003°51'1212.4
2014-Oct-23 15:34N 52°13' E 004°11'2 1.6
2014-Oct-23 14:31N 52°13' E 004°14'0 0.0
2014-Oct-23 13:31N 52°13' E 004°14'0 0.0
2014-Oct-23 12:31N 52°13' E 004°14'0 0.0
2014-Oct-23 11:31N 52°13' E 004°14'0 0.0
2014-Oct-23 10:31N 52°13' E 004°14'0 0.1
2014-Oct-23 09:31N 52°13' E 004°14'1 2.5
2014-Oct-23 09:00N 52°12' E 004°12'1 2.7 230 / 121021.210.8 1.514.011.214.0
2014-Oct-23 08:31N 52°13' E 004°14'0 0.0
2014-Oct-23 07:31N 52°13' E 004°14'0 0.0
2014-Oct-23 06:31N 52°13' E 004°14'0 0.0
2014-Oct-23 05:31N 52°13' E 004°14'0 0.0
2014-Oct-23 04:31N 52°13' E 004°14'0 0.0
2014-Oct-23 03:31N 52°13' E 004°14'0 0.0
2014-Oct-23 02:31N 52°13' E 004°14'0 0.0
2014-Oct-23 01:31N 52°13' E 004°14'0 0.1
2014-Oct-23 00:31N 52°13' E 004°14'0 0.1
2014-Oct-22 23:31N 52°13' E 004°14'0 0.1
2014-Oct-22 22:31N 52°13' E 004°14'0 0.1
2014-Oct-22 21:31N 52°13' E 004°14'1 2.3
2014-Oct-22 21:00N 52°12' E 004°12'1 2.5 310 / 121023.2 5.4 1.013.0 7.913.0
2014-Oct-22 20:31N 52°13' E 004°14'0 0.0
2014-Oct-22 19:31N 52°13' E 004°14'0 0.1
2014-Oct-22 18:31N 52°13' E 004°14'0 0.0
2014-Oct-22 17:31N 52°13' E 004°14'0 0.0
2014-Oct-22 16:31N 52°13' E 004°14'0 0.1
2014-Oct-22 15:31N 52°13' E 004°14'0 0.0
2014-Oct-22 14:31N 52°13' E 004°14'4 4.5
2014-Oct-22 13:33N 52°12' E 004°07'1211.6
2014-Oct-22 12:33N 52°12' E 003°48'1111.1
2014-Oct-22 11:33N 52°12' E 003°30'1912.3
2014-Oct-22 10:00N 52°18' E 003°00'24 1.5 320 / 301020.8 5.4 3.012.510.6
2014-Oct-21 18:00N 52°42' E 003°00'6 2.2 320 / 351004.1 5.4 6.012.0 5.615.0
2014-Oct-21 15:10N 52°38' E 003°07'27 8.4
2014-Oct-21 12:00N 52°12' E 003°18'714.0 280 / 331001.5 5.4 4.513.0 6.815.0
2014-Oct-21 11:28N 52°12' E 003°30'910.3
2014-Oct-21 10:33N 52°12' E 003°45'1111.2
2014-Oct-21 09:34N 52°12' E 004°04'7 6.6
2014-Oct-21 08:32N 52°13' E 004°15'0 0.1
2014-Oct-21 07:32N 52°12' E 004°15'0 0.0
2014-Oct-21 06:32N 52°12' E 004°15'0 0.0
2014-Oct-21 05:32N 52°12' E 004°15'156155.7
2014-Oct-21 04:32N 52°13' E 000°01'156155.7
2014-Oct-21 03:32N 52°12' E 004°15'0 0.0
2014-Oct-21 02:32N 52°12' E 004°15'0 0.0
2014-Oct-21 01:32N 52°12' E 004°15'0 0.0
2014-Oct-21 00:32N 52°12' E 004°15'0 0.0
2014-Oct-20 23:32N 52°12' E 004°15'0 0.0
2014-Oct-20 22:32N 52°12' E 004°15'0 0.0
2014-Oct-20 21:32N 52°12' E 004°15'0 0.0
2014-Oct-20 20:32N 52°12' E 004°15'0 0.0
2014-Oct-20 19:32N 52°12' E 004°15'0 0.0
2014-Oct-20 18:32N 52°12' E 004°15'0 0.0
2014-Oct-20 17:32N 52°12' E 004°15'0 0.0
2014-Oct-20 16:32N 52°12' E 004°15'0 0.0
2014-Oct-20 15:32N 52°12' E 004°15'0 0.0
2014-Oct-20 14:32N 52°12' E 004°15'0 0.0
2014-Oct-20 13:32N 52°12' E 004°15'0 0.0
2014-Oct-20 12:32N 52°12' E 004°15'0 0.0
2014-Oct-20 11:32N 52°12' E 004°15'0 0.1
2014-Oct-20 10:32N 52°12' E 004°15'0 0.0
2014-Oct-20 09:32N 52°12' E 004°15'0 0.0
2014-Oct-20 08:32N 52°12' E 004°15'0 0.0
2014-Oct-20 07:32N 52°12' E 004°15'0 0.0
2014-Oct-20 06:32N 52°12' E 004°15'0 0.0
2014-Oct-20 05:32N 52°12' E 004°15'0 0.0
2014-Oct-20 04:32N 52°12' E 004°15'0 0.0
2014-Oct-20 03:32N 52°12' E 004°15'0 0.0
2014-Oct-20 02:32N 52°12' E 004°15'0 0.0
2014-Oct-20 01:32N 52°12' E 004°15'0 0.0
2014-Oct-20 00:32N 52°12' E 004°15'0 0.0
2014-Oct-19 23:32N 52°12' E 004°15'0 0.0
2014-Oct-19 22:32N 52°12' E 004°15'0 0.0
2014-Oct-19 21:32N 52°12' E 004°15'0 0.0
2014-Oct-19 20:32N 52°12' E 004°15'0 0.1
2014-Oct-19 19:32N 52°12' E 004°15'0 0.1
2014-Oct-19 18:32N 52°12' E 004°15'0 0.0
2014-Oct-19 17:32N 52°12' E 004°15'0 0.0
2014-Oct-19 16:32N 52°12' E 004°15'0 0.0
2014-Oct-19 15:32N 52°12' E 004°15'0 0.0
2014-Oct-19 14:32N 52°12' E 004°15'0 0.0
2014-Oct-19 13:32N 52°12' E 004°15'0 0.0
2014-Oct-19 12:32N 52°12' E 004°15'4 4.2
2014-Oct-19 11:34N 52°13' E 004°08'1313.3
2014-Oct-19 10:33N 52°12' E 003°47'1312.9
2014-Oct-19 09:33N 52°08' E 003°26'1513.5
2014-Oct-19 08:28N 51°54' E 003°18'2814.1
2014-Oct-19 06:30N 51°45' E 002°36'1313.2
2014-Oct-19 05:32N 51°35' E 002°22'1313.2
2014-Oct-19 04:34N 51°26' E 002°08'1212.3
2014-Oct-19 03:33N 51°14' E 002°04'1312.9
2014-Oct-19 02:33N 51°07' E 001°46'1313.2
2014-Oct-19 01:33N 50°58' E 001°30'1413.5
2014-Oct-19 00:33N 50°46' E 001°23'15014.2
2014-Oct-18 14:00N 49°54' W 002°18'15614.2 210 / 121012.0 5.4 2.018.014.6
2014-Oct-18 03:00N 49°36' W 006°18'   200 / 221003.0 5.4 3.016.016.0
2014-Oct-15 21:00N 49°36' W 024°54'253252.5 290 / 18970.7 2.2 2.012.0 7.9
2014-Oct-15 20:00N 45°24' W 025°18'253252.5 310 / 16971.1 5.4 3.512.010.1
2014-Oct-15 19:00N 49°36' W 025°42'31313.6 310 / 20970.4 5.4 1.013.5 3.5
2014-Oct-14 20:00N 49°18' W 033°42'   320 / 36971.5 2.2 6.012.0 5.6

Dump ship's entire track history